sensor_id;sensor_type;location;lat;lon;timestamp;pressure;altitude;pressure_sealevel;temperature
71205;BMP180;58935;54.498;18.544;2023-02-15T00:00:50;102268.60;;;4.20
71205;BMP180;58935;54.498;18.544;2023-02-15T00:03:16;102266.60;;;4.20
71205;BMP180;58935;54.498;18.544;2023-02-15T00:05:41;102272.00;;;4.20
71205;BMP180;58935;54.498;18.544;2023-02-15T00:08:07;102275.40;;;4.20
71205;BMP180;58935;54.498;18.544;2023-02-15T00:10:34;102269.60;;;4.30
71205;BMP180;58935;54.498;18.544;2023-02-15T00:13:00;102270.00;;;4.30
71205;BMP180;58935;54.498;18.544;2023-02-15T00:15:25;102267.00;;;4.30
71205;BMP180;58935;54.498;18.544;2023-02-15T00:17:53;102267.40;;;4.30
71205;BMP180;58935;54.498;18.544;2023-02-15T00:20:21;102269.00;;;4.30
71205;BMP180;58935;54.498;18.544;2023-02-15T00:22:47;102265.40;;;4.30
71205;BMP180;58935;54.498;18.544;2023-02-15T00:25:15;102259.80;;;4.30
71205;BMP180;58935;54.498;18.544;2023-02-15T00:27:40;102253.20;;;4.30
71205;BMP180;58935;54.498;18.544;2023-02-15T00:30:08;102256.00;;;4.30
71205;BMP180;58935;54.498;18.544;2023-02-15T00:32:39;102251.80;;;4.36
71205;BMP180;58935;54.498;18.544;2023-02-15T00:35:04;102254.00;;;4.40
71205;BMP180;58935;54.498;18.544;2023-02-15T00:37:30;102249.40;;;4.40
71205;BMP180;58935;54.498;18.544;2023-02-15T00:39:58;102244.20;;;4.40
71205;BMP180;58935;54.498;18.544;2023-02-15T00:42:23;102244.60;;;4.40
71205;BMP180;58935;54.498;18.544;2023-02-15T00:44:49;102241.60;;;4.40
71205;BMP180;58935;54.498;18.544;2023-02-15T00:47:14;102242.20;;;4.40
71205;BMP180;58935;54.498;18.544;2023-02-15T00:49:42;102240.20;;;4.40
71205;BMP180;58935;54.498;18.544;2023-02-15T00:52:08;102235.40;;;4.38
71205;BMP180;58935;54.498;18.544;2023-02-15T00:54:33;102237.20;;;4.32
71205;BMP180;58935;54.498;18.544;2023-02-15T00:57:00;102232.60;;;4.32
71205;BMP180;58935;54.498;18.544;2023-02-15T00:59:25;102234.00;;;4.38
71205;BMP180;58935;54.498;18.544;2023-02-15T01:01:51;102231.00;;;4.40
71205;BMP180;58935;54.498;18.544;2023-02-15T01:04:16;102228.40;;;4.40
71205;BMP180;58935;54.498;18.544;2023-02-15T01:06:42;102232.80;;;4.40
71205;BMP180;58935;54.498;18.544;2023-02-15T01:09:07;102229.20;;;4.40
71205;BMP180;58935;54.498;18.544;2023-02-15T01:11:33;102224.80;;;4.40
71205;BMP180;58935;54.498;18.544;2023-02-15T01:14:01;102223.20;;;4.40
71205;BMP180;58935;54.498;18.544;2023-02-15T01:16:28;102223.60;;;4.40
71205;BMP180;58935;54.498;18.544;2023-02-15T01:18:54;102219.80;;;4.40
71205;BMP180;58935;54.498;18.544;2023-02-15T01:21:22;102219.60;;;4.44
71205;BMP180;58935;54.498;18.544;2023-02-15T01:23:48;102220.20;;;4.42
71205;BMP180;58935;54.498;18.544;2023-02-15T01:26:15;102222.00;;;4.40
71205;BMP180;58935;54.498;18.544;2023-02-15T01:28:41;102215.20;;;4.40
71205;BMP180;58935;54.498;18.544;2023-02-15T01:31:11;102216.80;;;4.40
71205;BMP180;58935;54.498;18.544;2023-02-15T01:33:40;102209.80;;;4.36
71205;BMP180;58935;54.498;18.544;2023-02-15T01:36:08;102208.20;;;4.38
71205;BMP180;58935;54.498;18.544;2023-02-15T01:38:35;102203.00;;;4.40
71205;BMP180;58935;54.498;18.544;2023-02-15T01:41:00;102203.00;;;4.40
71205;BMP180;58935;54.498;18.544;2023-02-15T01:46:00;102199.40;;;4.40
71205;BMP180;58935;54.498;18.544;2023-02-15T01:48:27;102198.40;;;4.40
71205;BMP180;58935;54.498;18.544;2023-02-15T01:50:56;102191.20;;;4.40
71205;BMP180;58935;54.498;18.544;2023-02-15T01:53:42;102193.60;;;4.42
71205;BMP180;58935;54.498;18.544;2023-02-15T01:56:12;102197.20;;;4.50
71205;BMP180;58935;54.498;18.544;2023-02-15T01:58:39;102195.40;;;4.50
71205;BMP180;58935;54.498;18.544;2023-02-15T02:01:07;102196.60;;;4.50
71205;BMP180;58935;54.498;18.544;2023-02-15T02:04:09;102194.20;;;4.46
71205;BMP180;58935;54.498;18.544;2023-02-15T02:06:22;102197.40;;;4.44
71205;BMP180;58935;54.498;18.544;2023-02-15T02:08:48;102193.60;;;4.46
71205;BMP180;58935;54.498;18.544;2023-02-15T02:11:14;102192.20;;;4.40
71205;BMP180;58935;54.498;18.544;2023-02-15T02:13:42;102196.00;;;4.40
71205;BMP180;58935;54.498;18.544;2023-02-15T02:16:30;102188.60;;;4.40
71205;BMP180;58935;54.498;18.544;2023-02-15T02:27:25;102176.80;;;4.40
71205;BMP180;58935;54.498;18.544;2023-02-15T02:30:13;102173.00;;;4.38
71205;BMP180;58935;54.498;18.544;2023-02-15T02:33:20;102170.00;;;4.40
71205;BMP180;58935;54.498;18.544;2023-02-15T02:42:02;102155.40;;;4.40
71205;BMP180;58935;54.498;18.544;2023-02-15T02:43:51;102147.60;;;4.40
71205;BMP180;58935;54.498;18.544;2023-02-15T02:46:27;102146.20;;;4.40
71205;BMP180;58935;54.498;18.544;2023-02-15T02:48:53;102148.40;;;4.40
71205;BMP180;58935;54.498;18.544;2023-02-15T02:51:24;102150.20;;;4.40
71205;BMP180;58935;54.498;18.544;2023-02-15T02:53:53;102150.60;;;4.40
71205;BMP180;58935;54.498;18.544;2023-02-15T02:56:27;102150.20;;;4.40
71205;BMP180;58935;54.498;18.544;2023-02-15T02:59:00;102145.80;;;4.40
71205;BMP180;58935;54.498;18.544;2023-02-15T03:01:32;102143.80;;;4.40
71205;BMP180;58935;54.498;18.544;2023-02-15T03:04:07;102149.00;;;4.40
71205;BMP180;58935;54.498;18.544;2023-02-15T03:09:11;102145.80;;;4.40
71205;BMP180;58935;54.498;18.544;2023-02-15T03:11:41;102148.00;;;4.40
71205;BMP180;58935;54.498;18.544;2023-02-15T03:14:07;102143.40;;;4.30
71205;BMP180;58935;54.498;18.544;2023-02-15T03:16:32;102138.80;;;4.30
71205;BMP180;58935;54.498;18.544;2023-02-15T03:19:02;102137.80;;;4.30
71205;BMP180;58935;54.498;18.544;2023-02-15T03:21:40;102138.80;;;4.30
71205;BMP180;58935;54.498;18.544;2023-02-15T03:24:11;102136.20;;;4.30
71205;BMP180;58935;54.498;18.544;2023-02-15T03:26:43;102134.20;;;4.30
71205;BMP180;58935;54.498;18.544;2023-02-15T03:29:11;102133.20;;;4.30
71205;BMP180;58935;54.498;18.544;2023-02-15T03:31:41;102129.00;;;4.30
71205;BMP180;58935;54.498;18.544;2023-02-15T03:34:11;102125.40;;;4.30
71205;BMP180;58935;54.498;18.544;2023-02-15T03:37:13;102121.80;;;4.28
71205;BMP180;58935;54.498;18.544;2023-02-15T03:39:47;102121.00;;;4.30
71205;BMP180;58935;54.498;18.544;2023-02-15T03:42:24;102117.60;;;4.30
71205;BMP180;58935;54.498;18.544;2023-02-15T03:45:03;102119.40;;;4.30
71205;BMP180;58935;54.498;18.544;2023-02-15T03:47:37;102119.80;;;4.30
71205;BMP180;58935;54.498;18.544;2023-02-15T03:50:10;102113.40;;;4.30
71205;BMP180;58935;54.498;18.544;2023-02-15T03:52:43;102116.80;;;4.30
71205;BMP180;58935;54.498;18.544;2023-02-15T03:55:11;102111.60;;;4.30
71205;BMP180;58935;54.498;18.544;2023-02-15T03:57:36;102111.60;;;4.30
71205;BMP180;58935;54.498;18.544;2023-02-15T04:00:14;102116.20;;;4.30
71205;BMP180;58935;54.498;18.544;2023-02-15T04:03:09;102109.40;;;4.28
71205;BMP180;58935;54.498;18.544;2023-02-15T04:05:35;102109.00;;;4.30
71205;BMP180;58935;54.498;18.544;2023-02-15T04:08:03;102111.20;;;4.30
71205;BMP180;58935;54.498;18.544;2023-02-15T04:10:29;102112.80;;;4.30
71205;BMP180;58935;54.498;18.544;2023-02-15T04:12:58;102108.20;;;4.30
71205;BMP180;58935;54.498;18.544;2023-02-15T04:15:23;102111.40;;;4.30
71205;BMP180;58935;54.498;18.544;2023-02-15T04:17:54;102111.40;;;4.30
71205;BMP180;58935;54.498;18.544;2023-02-15T04:20:22;102108.00;;;4.30
71205;BMP180;58935;54.498;18.544;2023-02-15T04:22:50;102108.40;;;4.30
71205;BMP180;58935;54.498;18.544;2023-02-15T04:25:19;102105.40;;;4.30
71205;BMP180;58935;54.498;18.544;2023-02-15T04:27:48;102104.20;;;4.30
71205;BMP180;58935;54.498;18.544;2023-02-15T04:30:15;102097.40;;;4.30
71205;BMP180;58935;54.498;18.544;2023-02-15T04:32:41;102096.20;;;4.30
71205;BMP180;58935;54.498;18.544;2023-02-15T04:35:08;102094.00;;;4.30
71205;BMP180;58935;54.498;18.544;2023-02-15T04:37:34;102089.00;;;4.30
71205;BMP180;58935;54.498;18.544;2023-02-15T04:40:03;102087.00;;;4.30
71205;BMP180;58935;54.498;18.544;2023-02-15T04:42:29;102083.20;;;4.30
71205;BMP180;58935;54.498;18.544;2023-02-15T04:44:56;102086.80;;;4.30
71205;BMP180;58935;54.498;18.544;2023-02-15T04:47:22;102085.60;;;4.30
71205;BMP180;58935;54.498;18.544;2023-02-15T04:49:50;102079.20;;;4.30
71205;BMP180;58935;54.498;18.544;2023-02-15T04:52:18;102076.60;;;4.24
71205;BMP180;58935;54.498;18.544;2023-02-15T04:54:44;102077.40;;;4.28
71205;BMP180;58935;54.498;18.544;2023-02-15T04:57:10;102076.60;;;4.20
71205;BMP180;58935;54.498;18.544;2023-02-15T04:59:35;102074.60;;;4.20
71205;BMP180;58935;54.498;18.544;2023-02-15T05:02:01;102078.00;;;4.20
71205;BMP180;58935;54.498;18.544;2023-02-15T05:04:29;102078.00;;;4.20
71205;BMP180;58935;54.498;18.544;2023-02-15T05:06:54;102071.20;;;4.20
71205;BMP180;58935;54.498;18.544;2023-02-15T05:09:20;102070.00;;;4.20
71205;BMP180;58935;54.498;18.544;2023-02-15T05:11:46;102066.20;;;4.20
71205;BMP180;58935;54.498;18.544;2023-02-15T05:14:11;102066.20;;;4.12
71205;BMP180;58935;54.498;18.544;2023-02-15T05:16:37;102069.00;;;4.10
71205;BMP180;58935;54.498;18.544;2023-02-15T05:19:03;102062.20;;;4.10
71205;BMP180;58935;54.498;18.544;2023-02-15T05:21:28;102068.20;;;4.10
71205;BMP180;58935;54.498;18.544;2023-02-15T05:23:54;102069.20;;;4.10
71205;BMP180;58935;54.498;18.544;2023-02-15T05:26:22;102062.00;;;4.10
71205;BMP180;58935;54.498;18.544;2023-02-15T05:28:50;102064.20;;;4.10
71205;BMP180;58935;54.498;18.544;2023-02-15T05:31:18;102062.80;;;4.10
71205;BMP180;58935;54.498;18.544;2023-02-15T05:33:44;102066.40;;;4.10
71205;BMP180;58935;54.498;18.544;2023-02-15T05:36:10;102066.00;;;4.10
71205;BMP180;58935;54.498;18.544;2023-02-15T05:38:36;102063.00;;;4.10
71205;BMP180;58935;54.498;18.544;2023-02-15T05:41:05;102062.80;;;4.10
71205;BMP180;58935;54.498;18.544;2023-02-15T05:43:34;102059.20;;;4.10
71205;BMP180;58935;54.498;18.544;2023-02-15T05:46:02;102055.40;;;4.10
71205;BMP180;58935;54.498;18.544;2023-02-15T05:48:31;102053.60;;;4.20
71205;BMP180;58935;54.498;18.544;2023-02-15T05:51:04;102056.60;;;4.20
71205;BMP180;58935;54.498;18.544;2023-02-15T05:53:32;102056.60;;;4.20
71205;BMP180;58935;54.498;18.544;2023-02-15T05:56:01;102060.80;;;4.20
71205;BMP180;58935;54.498;18.544;2023-02-15T05:58:30;102058.40;;;4.20
71205;BMP180;58935;54.498;18.544;2023-02-15T06:00:56;102056.00;;;4.24
71205;BMP180;58935;54.498;18.544;2023-02-15T06:03:22;102052.20;;;4.30
71205;BMP180;58935;54.498;18.544;2023-02-15T06:05:48;102047.80;;;4.30
71205;BMP180;58935;54.498;18.544;2023-02-15T06:08:14;102049.00;;;4.30
71205;BMP180;58935;54.498;18.544;2023-02-15T06:10:40;102048.20;;;4.30
71205;BMP180;58935;54.498;18.544;2023-02-15T06:13:06;102052.40;;;4.34
71205;BMP180;58935;54.498;18.544;2023-02-15T06:15:32;102052.20;;;4.38
71205;BMP180;58935;54.498;18.544;2023-02-15T06:17:58;102051.20;;;4.40
71205;BMP180;58935;54.498;18.544;2023-02-15T06:20:23;102055.40;;;4.40
71205;BMP180;58935;54.498;18.544;2023-02-15T06:22:49;102057.20;;;4.38
71205;BMP180;58935;54.498;18.544;2023-02-15T06:25:15;102058.60;;;4.40
71205;BMP180;58935;54.498;18.544;2023-02-15T06:27:41;102055.40;;;4.36
71205;BMP180;58935;54.498;18.544;2023-02-15T06:30:09;102054.00;;;4.36
71205;BMP180;58935;54.498;18.544;2023-02-15T06:32:35;102053.00;;;4.40
71205;BMP180;58935;54.498;18.544;2023-02-15T06:35:00;102051.00;;;4.40
71205;BMP180;58935;54.498;18.544;2023-02-15T06:37:26;102055.80;;;4.40
71205;BMP180;58935;54.498;18.544;2023-02-15T06:39:51;102047.00;;;4.40
71205;BMP180;58935;54.498;18.544;2023-02-15T06:42:17;102049.60;;;4.40
71205;BMP180;58935;54.498;18.544;2023-02-15T06:44:45;102040.40;;;4.48
71205;BMP180;58935;54.498;18.544;2023-02-15T06:47:13;102043.00;;;4.50
71205;BMP180;58935;54.498;18.544;2023-02-15T06:49:39;102043.60;;;4.50
71205;BMP180;58935;54.498;18.544;2023-02-15T06:52:07;102043.00;;;4.50
71205;BMP180;58935;54.498;18.544;2023-02-15T06:54:32;102038.80;;;4.60
71205;BMP180;58935;54.498;18.544;2023-02-15T06:56:58;102037.20;;;4.60
71205;BMP180;58935;54.498;18.544;2023-02-15T06:59:25;102035.60;;;4.60
71205;BMP180;58935;54.498;18.544;2023-02-15T07:01:53;102036.00;;;4.60
71205;BMP180;58935;54.498;18.544;2023-02-15T07:04:18;102036.60;;;4.60
71205;BMP180;58935;54.498;18.544;2023-02-15T07:06:44;102033.80;;;4.60
71205;BMP180;58935;54.498;18.544;2023-02-15T07:09:12;102033.20;;;4.66
71205;BMP180;58935;54.498;18.544;2023-02-15T07:11:38;102029.60;;;4.70
71205;BMP180;58935;54.498;18.544;2023-02-15T07:14:06;102029.00;;;4.70
71205;BMP180;58935;54.498;18.544;2023-02-15T07:16:32;102026.00;;;4.70
71205;BMP180;58935;54.498;18.544;2023-02-15T07:18:57;102024.80;;;4.70
71205;BMP180;58935;54.498;18.544;2023-02-15T07:21:23;102027.40;;;4.80
71205;BMP180;58935;54.498;18.544;2023-02-15T07:23:48;102026.40;;;4.80
71205;BMP180;58935;54.498;18.544;2023-02-15T07:26:14;102023.60;;;4.84
71205;BMP180;58935;54.498;18.544;2023-02-15T07:28:39;102024.80;;;4.90
71205;BMP180;58935;54.498;18.544;2023-02-15T07:31:05;102020.60;;;4.90
71205;BMP180;58935;54.498;18.544;2023-02-15T07:33:32;102019.60;;;4.90
71205;BMP180;58935;54.498;18.544;2023-02-15T07:35:59;102016.40;;;4.90
71205;BMP180;58935;54.498;18.544;2023-02-15T07:38:29;102011.00;;;4.90
71205;BMP180;58935;54.498;18.544;2023-02-15T07:40:58;102016.80;;;4.96
71205;BMP180;58935;54.498;18.544;2023-02-15T07:43:27;102012.60;;;4.98
71205;BMP180;58935;54.498;18.544;2023-02-15T07:45:53;102008.80;;;4.92
71205;BMP180;58935;54.498;18.544;2023-02-15T07:48:19;102008.60;;;5.00
71205;BMP180;58935;54.498;18.544;2023-02-15T07:50:44;102003.20;;;5.00
71205;BMP180;58935;54.498;18.544;2023-02-15T07:53:10;102000.00;;;5.00
71205;BMP180;58935;54.498;18.544;2023-02-15T07:55:35;101996.40;;;5.00
71205;BMP180;58935;54.498;18.544;2023-02-15T07:58:01;101991.20;;;5.00
71205;BMP180;58935;54.498;18.544;2023-02-15T08:00:26;101990.20;;;5.00
71205;BMP180;58935;54.498;18.544;2023-02-15T08:02:54;101987.20;;;5.00
71205;BMP180;58935;54.498;18.544;2023-02-15T08:05:23;101984.00;;;5.00
71205;BMP180;58935;54.498;18.544;2023-02-15T08:07:48;101979.80;;;5.00
71205;BMP180;58935;54.498;18.544;2023-02-15T08:10:16;101982.20;;;5.10
71205;BMP180;58935;54.498;18.544;2023-02-15T08:13:01;101982.00;;;5.10
71205;BMP180;58935;54.498;18.544;2023-02-15T08:15:29;101973.20;;;5.10
71205;BMP180;58935;54.498;18.544;2023-02-15T08:17:55;101975.00;;;5.14
71205;BMP180;58935;54.498;18.544;2023-02-15T08:20:24;101972.80;;;5.20
71205;BMP180;58935;54.498;18.544;2023-02-15T08:22:50;101971.40;;;5.20
71205;BMP180;58935;54.498;18.544;2023-02-15T08:25:15;101969.80;;;5.20
71205;BMP180;58935;54.498;18.544;2023-02-15T08:27:43;101972.40;;;5.20
71205;BMP180;58935;54.498;18.544;2023-02-15T08:30:09;101972.80;;;5.20
71205;BMP180;58935;54.498;18.544;2023-02-15T08:32:35;101967.20;;;5.20
71205;BMP180;58935;54.498;18.544;2023-02-15T08:35:00;101962.60;;;5.20
71205;BMP180;58935;54.498;18.544;2023-02-15T08:37:25;101965.00;;;5.12
71205;BMP180;58935;54.498;18.544;2023-02-15T08:39:51;101966.40;;;5.10
71205;BMP180;58935;54.498;18.544;2023-02-15T08:42:17;101964.20;;;5.10
71205;BMP180;58935;54.498;18.544;2023-02-15T08:44:42;101957.80;;;5.10
71205;BMP180;58935;54.498;18.544;2023-02-15T08:47:08;101956.40;;;5.00
71205;BMP180;58935;54.498;18.544;2023-02-15T08:49:33;101948.40;;;5.00
71205;BMP180;58935;54.498;18.544;2023-02-15T08:51:59;101943.40;;;5.00
71205;BMP180;58935;54.498;18.544;2023-02-15T08:54:27;101941.40;;;5.00
71205;BMP180;58935;54.498;18.544;2023-02-15T08:56:52;101937.80;;;5.00
71205;BMP180;58935;54.498;18.544;2023-02-15T08:59:22;101943.20;;;5.00
71205;BMP180;58935;54.498;18.544;2023-02-15T09:01:49;101937.40;;;5.00
71205;BMP180;58935;54.498;18.544;2023-02-15T09:04:18;101943.20;;;5.00
71205;BMP180;58935;54.498;18.544;2023-02-15T09:06:44;101937.60;;;5.00
71205;BMP180;58935;54.498;18.544;2023-02-15T09:09:11;101941.60;;;5.00
71205;BMP180;58935;54.498;18.544;2023-02-15T09:11:39;101935.20;;;5.00
71205;BMP180;58935;54.498;18.544;2023-02-15T09:14:08;101933.60;;;5.00
71205;BMP180;58935;54.498;18.544;2023-02-15T09:16:36;101935.20;;;5.00
71205;BMP180;58935;54.498;18.544;2023-02-15T09:19:03;101930.40;;;5.00
71205;BMP180;58935;54.498;18.544;2023-02-15T09:21:30;101926.60;;;5.00
71205;BMP180;58935;54.498;18.544;2023-02-15T09:23:57;101929.80;;;5.00
71205;BMP180;58935;54.498;18.544;2023-02-15T09:26:26;101924.60;;;4.94
71205;BMP180;58935;54.498;18.544;2023-02-15T09:28:54;101923.20;;;4.90
71205;BMP180;58935;54.498;18.544;2023-02-15T09:31:24;101919.60;;;4.90
71205;BMP180;58935;54.498;18.544;2023-02-15T09:33:53;101920.80;;;4.90
71205;BMP180;58935;54.498;18.544;2023-02-15T09:36:23;101917.40;;;4.86
71205;BMP180;58935;54.498;18.544;2023-02-15T09:52:16;101908.00;;;4.90
71205;BMP180;58935;54.498;18.544;2023-02-15T09:54:58;101912.80;;;4.80
71205;BMP180;58935;54.498;18.544;2023-02-15T09:57:35;101906.80;;;4.80
71205;BMP180;58935;54.498;18.544;2023-02-15T10:00:17;101902.40;;;4.88
71205;BMP180;58935;54.498;18.544;2023-02-15T10:03:02;101901.20;;;4.90
71205;BMP180;58935;54.498;18.544;2023-02-15T10:05:36;101899.00;;;4.90
71205;BMP180;58935;54.498;18.544;2023-02-15T10:08:16;101897.40;;;4.90
71205;BMP180;58935;54.498;18.544;2023-02-15T10:14:09;101897.60;;;4.90
71205;BMP180;58935;54.498;18.544;2023-02-15T10:22:01;101893.00;;;5.00
71205;BMP180;58935;54.498;18.544;2023-02-15T10:24:43;101891.80;;;5.00
71205;BMP180;58935;54.498;18.544;2023-02-15T10:27:19;101883.60;;;5.00
71205;BMP180;58935;54.498;18.544;2023-02-15T10:30:06;101881.60;;;5.00
71205;BMP180;58935;54.498;18.544;2023-02-15T10:32:42;101887.80;;;5.00
71205;BMP180;58935;54.498;18.544;2023-02-15T10:35:25;101888.20;;;5.00
71205;BMP180;58935;54.498;18.544;2023-02-15T10:38:06;101884.20;;;5.10
71205;BMP180;58935;54.498;18.544;2023-02-15T10:40:42;101887.20;;;5.10
71205;BMP180;58935;54.498;18.544;2023-02-15T10:43:23;101888.60;;;5.10
71205;BMP180;58935;54.498;18.544;2023-02-15T10:46:19;101878.60;;;5.20
71205;BMP180;58935;54.498;18.544;2023-02-15T10:49:16;101874.60;;;5.10
71205;BMP180;58935;54.498;18.544;2023-02-15T10:52:14;101873.20;;;5.10
71205;BMP180;58935;54.498;18.544;2023-02-15T10:54:50;101868.80;;;5.20
71205;BMP180;58935;54.498;18.544;2023-02-15T10:57:32;101861.20;;;5.20
71205;BMP180;58935;54.498;18.544;2023-02-15T11:03:17;101861.20;;;5.30
71205;BMP180;58935;54.498;18.544;2023-02-15T11:08:03;101849.60;;;5.40
71205;BMP180;58935;54.498;18.544;2023-02-15T11:10:37;101849.40;;;5.40
71205;BMP180;58935;54.498;18.544;2023-02-15T11:13:15;101849.80;;;5.50
71205;BMP180;58935;54.498;18.544;2023-02-15T11:16:04;101839.60;;;5.50
71205;BMP180;58935;54.498;18.544;2023-02-15T11:18:36;101836.60;;;5.60
71205;BMP180;58935;54.498;18.544;2023-02-15T11:21:22;101828.00;;;5.60
71205;BMP180;58935;54.498;18.544;2023-02-15T11:23:48;101833.00;;;5.50
71205;BMP180;58935;54.498;18.544;2023-02-15T11:26:24;101826.60;;;5.40
71205;BMP180;58935;54.498;18.544;2023-02-15T11:28:57;101825.60;;;5.38
71205;BMP180;58935;54.498;18.544;2023-02-15T11:31:26;101825.60;;;5.30
71205;BMP180;58935;54.498;18.544;2023-02-15T11:34:00;101826.60;;;5.30
71205;BMP180;58935;54.498;18.544;2023-02-15T11:36:32;101825.60;;;5.34
71205;BMP180;58935;54.498;18.544;2023-02-15T11:39:05;101821.40;;;5.40
71205;BMP180;58935;54.498;18.544;2023-02-15T11:41:37;101823.40;;;5.40
71205;BMP180;58935;54.498;18.544;2023-02-15T11:46:38;101818.80;;;5.50
71205;BMP180;58935;54.498;18.544;2023-02-15T11:49:23;101818.60;;;5.60
71205;BMP180;58935;54.498;18.544;2023-02-15T11:51:52;101813.40;;;5.70
71205;BMP180;58935;54.498;18.544;2023-02-15T11:54:27;101805.40;;;5.70
71205;BMP180;58935;54.498;18.544;2023-02-15T11:56:56;101800.80;;;5.70
71205;BMP180;58935;54.498;18.544;2023-02-15T11:59:28;101798.60;;;5.70
71205;BMP180;58935;54.498;18.544;2023-02-15T12:01:55;101793.20;;;5.70
71205;BMP180;58935;54.498;18.544;2023-02-15T12:04:24;101796.00;;;5.68
71205;BMP180;58935;54.498;18.544;2023-02-15T12:06:57;101790.80;;;5.58
71205;BMP180;58935;54.498;18.544;2023-02-15T12:14:46;101792.00;;;5.50
71205;BMP180;58935;54.498;18.544;2023-02-15T12:17:13;101785.60;;;5.58
71205;BMP180;58935;54.498;18.544;2023-02-15T12:19:39;101786.00;;;5.62
71205;BMP180;58935;54.498;18.544;2023-02-15T12:22:06;101784.40;;;5.70
71205;BMP180;58935;54.498;18.544;2023-02-15T12:24:46;101780.80;;;5.80
71205;BMP180;58935;54.498;18.544;2023-02-15T12:27:16;101783.00;;;5.90
71205;BMP180;58935;54.498;18.544;2023-02-15T12:29:46;101776.60;;;6.00
71205;BMP180;58935;54.498;18.544;2023-02-15T12:32:17;101771.60;;;6.10
71205;BMP180;58935;54.498;18.544;2023-02-15T12:34:46;101761.20;;;6.16
71205;BMP180;58935;54.498;18.544;2023-02-15T12:37:25;101766.60;;;6.20
71205;BMP180;58935;54.498;18.544;2023-02-15T12:39:56;101758.60;;;6.30
71205;BMP180;58935;54.498;18.544;2023-02-15T12:42:23;101763.20;;;6.30
71205;BMP180;58935;54.498;18.544;2023-02-15T12:44:54;101761.00;;;6.30
71205;BMP180;58935;54.498;18.544;2023-02-15T12:47:20;101759.20;;;6.38
71205;BMP180;58935;54.498;18.544;2023-02-15T12:50:04;101762.60;;;6.40
71205;BMP180;58935;54.498;18.544;2023-02-15T12:52:30;101770.00;;;6.34
71205;BMP180;58935;54.498;18.544;2023-02-15T12:55:10;101762.20;;;6.30
71205;BMP180;58935;54.498;18.544;2023-02-15T12:57:36;101758.60;;;6.40
71205;BMP180;58935;54.498;18.544;2023-02-15T13:00:06;101750.60;;;6.50
71205;BMP180;58935;54.498;18.544;2023-02-15T13:02:43;101746.60;;;6.50
71205;BMP180;58935;54.498;18.544;2023-02-15T13:05:19;101749.20;;;6.60
71205;BMP180;58935;54.498;18.544;2023-02-15T13:07:54;101752.20;;;6.50
71205;BMP180;58935;54.498;18.544;2023-02-15T13:10:26;101746.60;;;6.50
71205;BMP180;58935;54.498;18.544;2023-02-15T13:12:55;101746.80;;;6.50
71205;BMP180;58935;54.498;18.544;2023-02-15T13:15:28;101739.80;;;6.40
71205;BMP180;58935;54.498;18.544;2023-02-15T13:17:57;101739.20;;;6.40
71205;BMP180;58935;54.498;18.544;2023-02-15T13:20:24;101736.20;;;6.50
71205;BMP180;58935;54.498;18.544;2023-02-15T13:22:56;101735.60;;;6.50
71205;BMP180;58935;54.498;18.544;2023-02-15T13:25:27;101730.40;;;6.50
71205;BMP180;58935;54.498;18.544;2023-02-15T13:27:59;101725.00;;;6.50
71205;BMP180;58935;54.498;18.544;2023-02-15T13:30:32;101722.60;;;6.58
71205;BMP180;58935;54.498;18.544;2023-02-15T13:33:04;101722.20;;;6.60
71205;BMP180;58935;54.498;18.544;2023-02-15T13:35:38;101720.40;;;6.70
71205;BMP180;58935;54.498;18.544;2023-02-15T13:43:35;101720.40;;;6.90
71205;BMP180;58935;54.498;18.544;2023-02-15T13:46:21;101718.20;;;6.90
71205;BMP180;58935;54.498;18.544;2023-02-15T13:49:14;101712.20;;;6.90
71205;BMP180;58935;54.498;18.544;2023-02-15T13:51:54;101708.20;;;7.00
71205;BMP180;58935;54.498;18.544;2023-02-15T13:54:42;101703.60;;;7.02
71205;BMP180;58935;54.498;18.544;2023-02-15T13:59:46;101693.60;;;7.00
71205;BMP180;58935;54.498;18.544;2023-02-15T14:04:50;101690.20;;;7.00
71205;BMP180;58935;54.498;18.544;2023-02-15T14:12:50;101681.80;;;7.00
71205;BMP180;58935;54.498;18.544;2023-02-15T14:15:57;101678.60;;;7.00
71205;BMP180;58935;54.498;18.544;2023-02-15T14:21:04;101673.40;;;7.00
71205;BMP180;58935;54.498;18.544;2023-02-15T14:23:38;101670.40;;;7.02
71205;BMP180;58935;54.498;18.544;2023-02-15T14:26:45;101673.20;;;7.04
71205;BMP180;58935;54.498;18.544;2023-02-15T14:29:14;101670.60;;;7.00
71205;BMP180;58935;54.498;18.544;2023-02-15T14:31:45;101670.00;;;6.98
71205;BMP180;58935;54.498;18.544;2023-02-15T14:36:50;101672.60;;;6.90
71205;BMP180;58935;54.498;18.544;2023-02-15T14:39:36;101674.20;;;6.90
71205;BMP180;58935;54.498;18.544;2023-02-15T14:44:57;101662.80;;;6.80
71205;BMP180;58935;54.498;18.544;2023-02-15T14:47:31;101661.80;;;6.70
71205;BMP180;58935;54.498;18.544;2023-02-15T14:49:59;101660.00;;;6.70
71205;BMP180;58935;54.498;18.544;2023-02-15T14:55:35;101650.00;;;6.60
71205;BMP180;58935;54.498;18.544;2023-02-15T14:58:01;101647.60;;;6.58
71205;BMP180;58935;54.498;18.544;2023-02-15T15:00:33;101650.00;;;6.50
71205;BMP180;58935;54.498;18.544;2023-02-15T15:03:01;101648.60;;;6.40
71205;BMP180;58935;54.498;18.544;2023-02-15T15:05:35;101648.20;;;6.40
71205;BMP180;58935;54.498;18.544;2023-02-15T15:10:49;101640.20;;;6.30
71205;BMP180;58935;54.498;18.544;2023-02-15T15:13:35;101639.60;;;6.20
71205;BMP180;58935;54.498;18.544;2023-02-15T15:18:45;101640.80;;;6.10
71205;BMP180;58935;54.498;18.544;2023-02-15T15:24:02;101639.80;;;6.00
71205;BMP180;58935;54.498;18.544;2023-02-15T15:26:32;101636.80;;;5.90
71205;BMP180;58935;54.498;18.544;2023-02-15T15:29:03;101631.80;;;5.80
71205;BMP180;58935;54.498;18.544;2023-02-15T15:31:51;101630.80;;;5.80
71205;BMP180;58935;54.498;18.544;2023-02-15T15:34:33;101634.40;;;5.78
71205;BMP180;58935;54.498;18.544;2023-02-15T15:40:18;101624.20;;;5.60
71205;BMP180;58935;54.498;18.544;2023-02-15T15:42:57;101624.00;;;5.56
71205;BMP180;58935;54.498;18.544;2023-02-15T15:45:53;101623.20;;;5.50
71205;BMP180;58935;54.498;18.544;2023-02-15T15:48:29;101613.20;;;5.40